Terminal Aerodrome Forecast
Issued by NWS

Home | Current Version | Previous Version | Text Only | Print | Product List | Glossary On
Versions: 1 2 3 4 5 6 7 8 9 10 11 12 13 14 15 16 17 18 19 20
000
FTUS43 KFGF 310900 AAA
TAFDVL
TAF AMD
KDVL 310912Z 3109/0106 15013KT P6SM OVC008
     FM311200 13010KT P6SM -TSRA OVC008CB
     FM311400 21006KT P6SM VCSH OVC025
     FM311800 33013KT P6SM BKN020
     FM010000 30008KT P6SM SCT100
      AMD LTD TO CLD VIS AND WIND=

USA.gov is the U.S. government's official web portal to all federal, state and local government web resources and services.